createdAt,value
2018-04-27T00:00:01.247Z,1001.44
2018-04-27T00:01:11.321Z,1001.47
2018-04-27T00:02:21.402Z,1001.47
2018-04-27T00:03:31.222Z,1001.46
2018-04-27T00:04:41.292Z,1001.47
2018-04-27T00:05:51.358Z,1001.46
2018-04-27T00:07:01.174Z,1001.44
2018-04-27T00:08:11.082Z,1001.44
2018-04-27T00:09:21.158Z,1001.51
2018-04-27T00:10:31.270Z,1001.52
2018-04-27T00:11:41.372Z,1001.51
2018-04-27T00:12:51.457Z,1001.49
2018-04-27T00:14:01.537Z,1001.43
2018-04-27T00:15:11.619Z,1001.43
2018-04-27T00:16:21.710Z,1001.43
2018-04-27T00:17:31.808Z,1001.44
2018-04-27T00:18:41.611Z,1001.45
2018-04-27T00:19:51.451Z,1001.43
2018-04-27T00:21:01.520Z,1001.43
2018-04-27T00:22:11.614Z,1001.41
2018-04-27T00:23:21.692Z,1001.4
2018-04-27T00:24:31.523Z,1001.4
2018-04-27T00:25:41.340Z,1001.4
2018-04-27T00:26:51.425Z,1001.39
2018-04-27T00:28:01.253Z,1001.38
2018-04-27T00:29:11.326Z,1001.4
2018-04-27T00:30:21.138Z,1001.35
2018-04-27T00:31:30.950Z,1001.33
2018-04-27T00:32:41.036Z,1001.33
2018-04-27T00:33:51.150Z,1001.34
2018-04-27T00:35:01.228Z,1001.38
2018-04-27T00:36:11.041Z,1001.4
2018-04-27T00:37:21.122Z,1001.43
2018-04-27T00:38:31.208Z,1001.45
2018-04-27T00:39:41.288Z,1001.47
2018-04-27T00:40:51.370Z,1001.43
2018-04-27T00:42:00.925Z,1001.48
2018-04-27T00:43:10.987Z,1001.48
2018-04-27T00:44:20.813Z,1001.47
2018-04-27T00:45:30.906Z,1001.44
2018-04-27T00:46:40.982Z,1001.41
2018-04-27T00:47:51.045Z,1001.37
2018-04-27T00:49:00.880Z,1001.36
2018-04-27T00:50:10.946Z,1001.3
2018-04-27T00:51:21.006Z,1001.24
2018-04-27T00:52:31.099Z,1001.21
2018-04-27T00:53:40.918Z,1001.21
2018-04-27T00:54:51.018Z,1001.21
2018-04-27T00:56:01.086Z,1001.24
2018-04-27T00:57:11.156Z,1001.28
2018-04-27T00:58:21.256Z,1001.27
2018-04-27T00:59:31.345Z,1001.25
2018-04-27T01:00:41.484Z,1001.28
2018-04-27T01:01:51.559Z,1001.26
2018-04-27T01:03:01.632Z,1001.28
2018-04-27T01:04:11.454Z,1001.21
2018-04-27T01:05:21.546Z,1001.2
2018-04-27T01:06:31.618Z,1001.15
2018-04-27T01:07:41.710Z,1001.17
2018-04-27T01:08:51.781Z,1001.17
2018-04-27T01:10:01.348Z,1001.17
2018-04-27T01:11:11.417Z,1001.17
2018-04-27T01:12:21.218Z,1001.18
2018-04-27T01:13:31.047Z,1001.18
2018-04-27T01:14:41.120Z,1001.17
2018-04-27T01:15:51.187Z,1001.15
2018-04-27T01:17:01.006Z,1001.15
2018-04-27T01:18:10.864Z,1001.17
2018-04-27T01:19:20.961Z,1001.14
2018-04-27T01:20:31.033Z,1001.15
2018-04-27T01:21:41.114Z,1001.15
2018-04-27T01:22:51.205Z,1001.19
2018-04-27T01:24:01.329Z,1001.16
2018-04-27T01:25:11.131Z,1001.16
2018-04-27T01:26:21.212Z,1001.12
2018-04-27T01:27:31.051Z,1001.14
2018-04-27T01:28:41.134Z,1001.15
2018-04-27T01:29:51.200Z,1001.16
2018-04-27T01:31:01.273Z,1001.15
2018-04-27T01:32:10.824Z,1001.12
2018-04-27T01:33:20.892Z,1001.12
2018-04-27T01:34:30.717Z,1001.15
2018-04-27T01:35:40.843Z,1001.09
2018-04-27T01:36:50.920Z,1001.1
2018-04-27T01:38:01.017Z,1001.09
2018-04-27T01:39:11.102Z,1001.11
2018-04-27T01:40:21.204Z,1001.09
2018-04-27T01:41:31.283Z,1001.07
2018-04-27T01:42:41.448Z,1001.05
2018-04-27T01:43:51.508Z,1001.03
2018-04-27T01:45:01.577Z,1001.03
2018-04-27T01:46:11.413Z,1001.05
2018-04-27T01:47:21.485Z,1001.04
2018-04-27T01:48:31.647Z,1000.99
2018-04-27T01:49:41.721Z,1001.02
2018-04-27T01:50:51.797Z,1000.99
2018-04-27T01:52:01.608Z,1000.97
2018-04-27T01:53:11.477Z,1000.96
2018-04-27T01:54:21.577Z,1000.92
2018-04-27T01:55:31.649Z,1000.92
2018-04-27T01:56:41.717Z,1000.95
2018-04-27T01:57:51.795Z,1000.92
2018-04-27T01:59:01.932Z,1000.93
2018-04-27T02:00:12.036Z,1000.91
2018-04-27T02:01:21.836Z,1000.91
2018-04-27T02:02:31.921Z,1001
2018-04-27T02:03:41.738Z,1000.95
2018-04-27T02:04:51.853Z,1000.98
2018-04-27T02:06:01.992Z,1000.96
2018-04-27T02:07:12.067Z,1000.96
2018-04-27T02:08:22.151Z,1000.97
2018-04-27T02:09:32.235Z,1001.01
2018-04-27T02:10:42.294Z,1000.99
2018-04-27T02:11:52.357Z,1000.97
2018-04-27T02:13:02.439Z,1000.97
2018-04-27T02:14:12.248Z,1000.96
2018-04-27T02:15:22.330Z,1000.94
2018-04-27T02:16:32.410Z,1000.91
2018-04-27T02:17:42.487Z,1000.9
2018-04-27T02:18:52.585Z,1000.92
2018-04-27T02:20:02.407Z,1000.91
2018-04-27T02:21:12.487Z,1000.92
2018-04-27T02:22:22.549Z,1000.87
2018-04-27T02:23:32.373Z,1000.86
2018-04-27T02:24:42.452Z,1000.87
2018-04-27T02:25:52.529Z,1000.87
2018-04-27T02:27:02.607Z,1000.82
2018-04-27T02:28:12.719Z,1000.86
2018-04-27T02:29:22.801Z,1000.85
2018-04-27T02:30:32.888Z,1000.86
2018-04-27T02:31:42.992Z,1000.86
2018-04-27T02:32:52.815Z,1000.87
2018-04-27T02:34:02.690Z,1000.89
2018-04-27T02:35:12.790Z,1000.92
2018-04-27T02:36:22.872Z,1000.94
2018-04-27T02:37:32.711Z,1000.97
2018-04-27T02:38:42.786Z,1001
2018-04-27T02:39:52.903Z,1001.02
2018-04-27T02:41:02.741Z,1001
2018-04-27T02:42:12.824Z,1000.97
2018-04-27T02:43:22.635Z,1000.97
2018-04-27T02:44:32.211Z,1000.97
2018-04-27T02:45:42.300Z,1000.97
2018-04-27T02:46:52.384Z,1000.95
2018-04-27T02:48:02.470Z,1000.93
2018-04-27T02:49:12.548Z,1000.91
2018-04-27T02:50:22.618Z,1000.89
2018-04-27T02:51:32.717Z,1000.87
2018-04-27T02:52:42.799Z,1000.86
2018-04-27T02:53:52.611Z,1000.87
2018-04-27T02:55:02.695Z,1000.9
2018-04-27T02:56:12.768Z,1000.94
2018-04-27T02:57:22.841Z,1000.97
2018-04-27T02:58:32.668Z,1000.98
2018-04-27T02:59:42.733Z,1000.95
2018-04-27T03:00:52.815Z,1000.91
2018-04-27T03:02:02.906Z,1000.89
2018-04-27T03:34:13.532Z,1000.91
2018-04-27T03:35:23.959Z,1000.94
2018-04-27T03:36:34.022Z,1000.97
2018-04-27T03:37:44.082Z,1000.95
2018-04-27T03:38:53.897Z,1000.94
2018-04-27T03:40:04.048Z,1000.91
2018-04-27T03:41:14.128Z,1000.88
2018-04-27T03:42:24.215Z,1000.91
2018-04-27T03:43:33.757Z,1000.85
2018-04-27T03:44:43.906Z,1000.82
2018-04-27T03:45:53.452Z,1000.86
2018-04-27T03:47:03.531Z,1000.86
2018-04-27T03:48:13.601Z,1000.94
2018-04-27T03:49:23.396Z,1000.96
2018-04-27T03:50:33.208Z,1001
2018-04-27T03:51:42.801Z,1000.94
2018-04-27T03:52:53.125Z,1000.97
2018-04-27T03:54:03.209Z,1000.98
2018-04-27T03:55:13.285Z,1001.03
2018-04-27T03:56:23.362Z,1001.02
2018-04-27T03:57:33.164Z,1000.99
2018-04-27T03:58:43.244Z,1000.96
2018-04-27T03:59:53.311Z,1001.03
2018-04-27T04:01:03.148Z,1001.07
2018-04-27T04:02:13.471Z,1001.06
2018-04-27T04:03:23.558Z,1001.06
2018-04-27T04:04:33.641Z,1001.02
2018-04-27T04:05:43.714Z,1001.08
2018-04-27T04:06:53.519Z,1001.08
2018-04-27T04:08:03.588Z,1001.02
2018-04-27T04:09:13.728Z,1001.02
2018-04-27T04:10:23.803Z,1001.04
2018-04-27T04:11:33.888Z,1001.03
2018-04-27T04:12:43.987Z,1001.07
2018-04-27T04:13:54.073Z,1001.09
2018-04-27T04:15:03.879Z,1001.1
2018-04-27T04:16:13.694Z,1001.15
2018-04-27T04:17:23.778Z,1001.15
2018-04-27T04:18:33.848Z,1001.14
2018-04-27T04:19:43.928Z,1001.15
2018-04-27T04:20:54.015Z,1001.17
2018-04-27T04:22:04.103Z,1001.23
2018-04-27T04:23:14.200Z,1001.28
2018-04-27T04:24:24.266Z,1001.28
2018-04-27T04:25:34.348Z,1001.24
2018-04-27T04:26:44.487Z,1001.23
2018-04-27T04:27:54.357Z,1001.27
2018-04-27T04:29:04.164Z,1001.26
2018-04-27T04:30:14.234Z,1001.3
2018-04-27T04:31:24.298Z,1001.39
2018-04-27T04:32:34.414Z,1001.37
2018-04-27T04:33:44.483Z,1001.34
2018-04-27T04:34:54.569Z,1001.41
2018-04-27T04:36:04.642Z,1001.42
2018-04-27T04:37:14.735Z,1001.48
2018-04-27T04:38:25.020Z,1001.5
2018-04-27T04:39:35.111Z,1001.44
2018-04-27T04:40:44.955Z,1001.42
2018-04-27T04:41:55.023Z,1001.46
2018-04-27T04:43:05.127Z,1001.47
2018-04-27T04:44:15.220Z,1001.45
2018-04-27T04:45:25.289Z,1001.42
2018-04-27T04:46:35.377Z,1001.38
2018-04-27T04:47:45.449Z,1001.42
2018-04-27T04:48:55.533Z,1001.38
2018-04-27T04:50:05.878Z,1001.35
2018-04-27T04:51:15.972Z,1001.34
2018-04-27T04:52:26.085Z,1001.42
2018-04-27T04:53:36.549Z,1001.44
2018-04-27T04:54:46.422Z,1001.43
2018-04-27T04:55:56.569Z,1001.44
2018-04-27T04:57:06.385Z,1001.44
2018-04-27T04:58:16.187Z,1001.44
2018-04-27T04:59:25.997Z,1001.44
2018-04-27T05:00:36.083Z,1001.46
2018-04-27T05:01:46.153Z,1001.5
2018-04-27T05:02:56.317Z,1001.49
2018-04-27T05:04:06.716Z,1001.55
2018-04-27T05:05:16.792Z,1001.58
2018-04-27T05:06:26.869Z,1001.59
2018-04-27T05:07:36.940Z,1001.61
2018-04-27T05:08:47.018Z,1001.62
2018-04-27T05:09:57.188Z,1001.61
2018-04-27T05:11:07.269Z,1001.65
2018-04-27T05:12:17.088Z,1001.65
2018-04-27T05:13:27.183Z,1001.66
2018-04-27T05:14:37.265Z,1001.7
2018-04-27T05:15:47.356Z,1001.68
2018-04-27T05:16:57.429Z,1001.73
2018-04-27T05:18:07.533Z,1001.75
2018-04-27T05:19:17.612Z,1001.77
2018-04-27T05:20:27.769Z,1001.79
2018-04-27T05:21:37.596Z,1001.79
2018-04-27T05:22:47.142Z,1001.79
2018-04-27T05:23:57.235Z,1001.73
2018-04-27T05:25:07.323Z,1001.78
2018-04-27T05:26:17.404Z,1001.81
2018-04-27T05:27:27.504Z,1001.78
2018-04-27T05:28:37.636Z,1001.81
2018-04-27T05:29:47.604Z,1001.76
2018-04-27T05:30:57.902Z,1001.79
2018-04-27T05:32:07.747Z,1001.76
2018-04-27T05:33:17.828Z,1001.75
2018-04-27T05:34:27.910Z,1001.78
2018-04-27T05:35:37.990Z,1001.76
2018-04-27T05:36:48.080Z,1001.73
2018-04-27T05:37:58.169Z,1001.69
2018-04-27T05:39:08.261Z,1001.67
2018-04-27T05:40:18.340Z,1001.65
2018-04-27T05:41:27.884Z,1001.68
2018-04-27T05:42:38.010Z,1001.62
2018-04-27T05:43:48.081Z,1001.56
2018-04-27T05:44:57.895Z,1001.6
2018-04-27T05:46:08.002Z,1001.59
2018-04-27T05:47:17.830Z,1001.56
2018-04-27T05:48:27.717Z,1001.52
2018-04-27T05:49:37.792Z,1001.49
2018-04-27T05:50:47.611Z,1001.55
2018-04-27T05:51:57.681Z,1001.49
2018-04-27T05:53:07.772Z,1001.53
2018-04-27T05:54:17.639Z,1001.48
2018-04-27T05:55:27.713Z,1001.49
2018-04-27T05:56:38.014Z,1001.47
2018-04-27T05:57:47.846Z,1001.49
2018-04-27T05:58:57.920Z,1001.53
2018-04-27T06:00:08.057Z,1001.53
2018-04-27T06:01:18.148Z,1001.52
2018-04-27T06:02:28.244Z,1001.52
2018-04-27T06:03:38.327Z,1001.55
2018-04-27T06:04:48.406Z,1001.52
2018-04-27T06:05:58.480Z,1001.5
2018-04-27T06:07:08.569Z,1001.52
2018-04-27T06:08:18.683Z,1001.47
2018-04-27T06:09:28.773Z,1001.46
2018-04-27T06:10:38.852Z,1001.48
2018-04-27T06:11:49.000Z,1001.44
2018-04-27T06:12:59.080Z,1001.44
2018-04-27T06:14:09.158Z,1001.5
2018-04-27T06:15:19.242Z,1001.47
2018-04-27T06:16:29.337Z,1001.49
2018-04-27T06:17:39.433Z,1001.48
2018-04-27T06:18:49.521Z,1001.46
2018-04-27T06:19:59.602Z,1001.46
2018-04-27T06:21:09.665Z,1001.48
2018-04-27T06:22:19.756Z,1001.47
2018-04-27T06:23:29.904Z,1001.45
2018-04-27T06:24:39.992Z,1001.49
2018-04-27T06:25:50.129Z,1001.5
2018-04-27T06:27:00.226Z,1001.46
2018-04-27T06:28:10.320Z,1001.5
2018-04-27T06:29:20.443Z,1001.48
2018-04-27T06:30:30.517Z,1001.48
2018-04-27T06:31:40.611Z,1001.52
2018-04-27T06:32:50.618Z,1001.5
2018-04-27T06:34:00.703Z,1001.51
2018-04-27T06:35:10.805Z,1001.47
2018-04-27T06:36:20.896Z,1001.47
2018-04-27T06:37:30.716Z,1001.51
2018-04-27T06:38:40.809Z,1001.48
2018-04-27T06:39:50.880Z,1001.48
2018-04-27T06:41:00.692Z,1001.49
2018-04-27T06:42:10.525Z,1001.5
2018-04-27T06:43:20.343Z,1001.49
2018-04-27T06:44:30.415Z,1001.45
2018-04-27T06:45:40.489Z,1001.45
2018-04-27T06:46:50.560Z,1001.46
2018-04-27T06:48:00.649Z,1001.42
2018-04-27T06:49:10.743Z,1001.41
2018-04-27T06:50:20.826Z,1001.37
2018-04-27T06:51:30.965Z,1001.38
2018-04-27T06:52:40.964Z,1001.35
2018-04-27T06:53:51.071Z,1001.37
2018-04-27T06:55:00.892Z,1001.38
2018-04-27T06:56:10.971Z,1001.36
2018-04-27T06:57:21.051Z,1001.31
2018-04-27T06:58:30.939Z,1001.34
2018-04-27T06:59:41.036Z,1001.32
2018-04-27T07:00:50.860Z,1001.31
2018-04-27T07:02:00.954Z,1001.33
2018-04-27T07:03:10.775Z,1001.28
2018-04-27T07:04:20.909Z,1001.28
2018-04-27T07:05:30.992Z,1001.32
2018-04-27T07:06:41.101Z,1001.28
2018-04-27T07:07:51.193Z,1001.3
2018-04-27T07:09:01.029Z,1001.29
2018-04-27T07:10:11.181Z,1001.29
2018-04-27T07:11:21.265Z,1001.23
2018-04-27T07:12:31.519Z,1001.23
2018-04-27T07:13:41.641Z,1001.18
2018-04-27T07:14:51.723Z,1001.17
2018-04-27T07:16:01.818Z,1001.18
2018-04-27T07:17:11.950Z,1001.21
2018-04-27T07:18:22.072Z,1001.19
2018-04-27T07:19:32.140Z,1001.17
2018-04-27T07:20:42.240Z,1001.15
2018-04-27T07:21:52.111Z,1001.14
2018-04-27T07:23:02.179Z,1001.1
2018-04-27T07:24:12.268Z,1001.1
2018-04-27T07:25:22.355Z,1001.1
2018-04-27T07:26:32.178Z,1001.07
2018-04-27T07:27:42.262Z,1001.08
2018-04-27T07:28:52.331Z,1001.12
2018-04-27T07:30:02.485Z,1001.12
2018-04-27T07:31:12.310Z,1001.11
2018-04-27T07:32:22.401Z,1001.15
2018-04-27T07:33:32.561Z,1001.15
2018-04-27T07:34:42.650Z,1001.14
2018-04-27T07:35:52.197Z,1001.18
2018-04-27T07:37:02.287Z,1001.18
2018-04-27T07:38:12.171Z,1001.18
2018-04-27T07:39:22.317Z,1001.18
2018-04-27T07:40:32.434Z,1001.21
2018-04-27T07:41:42.266Z,1001.13
2018-04-27T07:42:52.345Z,1001.15
2018-04-27T07:44:02.195Z,1001.16
2018-04-27T07:45:12.315Z,1001.16
2018-04-27T07:46:22.687Z,1001.17
2018-04-27T07:47:32.751Z,1001.16
2018-04-27T07:48:42.850Z,1001.17
2018-04-27T07:49:52.914Z,1001.17
2018-04-27T07:51:03.069Z,1001.13
2018-04-27T07:52:13.163Z,1001.12
2018-04-27T07:53:23.245Z,1001.15
2018-04-27T07:54:33.357Z,1001.16
2018-04-27T07:55:43.451Z,1001.17
2018-04-27T07:56:53.529Z,1001.14
2018-04-27T07:58:03.609Z,1001.13
2018-04-27T07:59:13.697Z,1001.14
2018-04-27T08:00:23.509Z,1001.17
2018-04-27T08:01:33.606Z,1001.18
2018-04-27T08:02:43.741Z,1001.2
2018-04-27T08:03:53.558Z,1001.18
2018-04-27T08:05:03.662Z,1001.16
2018-04-27T08:06:13.754Z,1001.22
2018-04-27T08:07:23.581Z,1001.25
2018-04-27T08:08:33.472Z,1001.27
2018-04-27T08:09:43.284Z,1001.28
2018-04-27T08:10:52.840Z,1001.22
2018-04-27T08:12:02.937Z,1001.22
2018-04-27T08:13:13.037Z,1001.29
2018-04-27T08:14:23.118Z,1001.26
2018-04-27T08:15:33.222Z,1001.28
2018-04-27T08:16:43.320Z,1001.26
2018-04-27T08:17:53.430Z,1001.22
2018-04-27T08:19:03.616Z,1001.2
2018-04-27T08:20:13.769Z,1001.2
2018-04-27T08:21:23.606Z,1001.19
2018-04-27T08:22:33.705Z,1001.2
2018-04-27T08:23:43.791Z,1001.18
2018-04-27T08:24:53.890Z,1001.15
2018-04-27T08:26:03.718Z,1001.15
2018-04-27T08:27:13.849Z,1001.15
2018-04-27T08:28:23.673Z,1001.17
2018-04-27T08:29:33.782Z,1001.16
2018-04-27T08:30:43.875Z,1001.17
2018-04-27T08:31:54.017Z,1001.11
2018-04-27T08:33:04.116Z,1001.1
2018-04-27T08:34:14.220Z,1001.08
2018-04-27T08:35:24.077Z,1001.05
2018-04-27T08:36:34.181Z,1001.04
2018-04-27T08:37:44.041Z,1001.01
2018-04-27T08:38:54.158Z,1001
2018-04-27T08:40:04.248Z,1000.98
2018-04-27T08:41:14.324Z,1000.92
2018-04-27T08:42:24.158Z,1000.95
2018-04-27T08:43:34.341Z,1000.96
2018-04-27T08:44:44.580Z,1000.9
2018-04-27T08:45:54.678Z,1000.88
2018-04-27T08:47:04.529Z,1000.87
2018-04-27T08:48:14.633Z,1000.83
2018-04-27T08:49:24.755Z,1000.82
2018-04-27T08:50:34.677Z,1000.8
2018-04-27T08:51:44.875Z,1000.89
2018-04-27T08:52:54.951Z,1000.82
2018-04-27T08:54:05.064Z,1000.82
2018-04-27T08:55:15.180Z,1000.82
2018-04-27T08:56:25.015Z,1000.82
2018-04-27T08:57:35.192Z,1000.85
2018-04-27T08:58:45.309Z,1000.84
2018-04-27T08:59:55.394Z,1000.84
2018-04-27T09:01:05.535Z,1000.83
2018-04-27T09:02:15.090Z,1000.79
2018-04-27T09:03:24.914Z,1000.78
2018-04-27T09:04:35.008Z,1000.75
2018-04-27T09:05:44.863Z,1000.77
2018-04-27T09:06:54.435Z,1000.75
2018-04-27T09:08:04.526Z,1000.67
2018-04-27T09:09:14.354Z,1000.7
2018-04-27T09:10:24.430Z,1000.71
2018-04-27T09:11:34.254Z,1000.69
2018-04-27T09:12:44.395Z,1000.7
2018-04-27T09:13:54.236Z,1000.62
2018-04-27T09:15:04.081Z,1000.6
2018-04-27T09:16:14.213Z,1000.63
2018-04-27T09:17:24.618Z,1000.68
2018-04-27T09:18:34.699Z,1000.67
2018-04-27T09:19:44.510Z,1000.6
2018-04-27T09:20:54.588Z,1000.61
2018-04-27T09:22:04.661Z,1000.55
2018-04-27T09:23:14.751Z,1000.55
2018-04-27T09:24:24.895Z,1000.54
2018-04-27T09:25:34.984Z,1000.56
2018-04-27T09:26:45.075Z,1000.53
2018-04-27T09:27:55.418Z,1000.6
2018-04-27T09:29:05.503Z,1000.57
2018-04-27T09:30:15.599Z,1000.51
2018-04-27T09:31:25.172Z,1000.48
2018-04-27T09:32:35.245Z,1000.48
2018-04-27T09:33:45.329Z,1000.51
2018-04-27T09:34:55.447Z,1000.49
2018-04-27T09:36:05.345Z,1000.46
2018-04-27T09:37:15.439Z,1000.47
2018-04-27T09:38:25.531Z,1000.39
2018-04-27T09:39:35.636Z,1000.37
2018-04-27T09:40:45.729Z,1000.38
2018-04-27T09:41:55.578Z,1000.34
2018-04-27T09:43:05.695Z,1000.28
2018-04-27T09:44:15.522Z,1000.29
2018-04-27T09:45:25.663Z,1000.27
2018-04-27T09:46:35.484Z,1000.22
2018-04-27T09:47:45.567Z,1000.23
2018-04-27T09:48:55.716Z,1000.18
2018-04-27T09:50:05.577Z,1000.16
2018-04-27T09:51:15.140Z,1000.15
2018-04-27T09:52:25.213Z,1000.12
2018-04-27T09:53:35.309Z,1000.09
2018-04-27T09:54:45.549Z,1000.06
2018-04-27T09:55:55.631Z,1000.03
2018-04-27T09:57:05.275Z,1000.01
2018-04-27T09:58:15.377Z,999.98
2018-04-27T09:59:25.538Z,999.98
2018-04-27T10:00:35.632Z,1000
2018-04-27T10:01:45.765Z,1000.01
2018-04-27T10:02:55.706Z,999.96
2018-04-27T10:04:05.852Z,999.99
2018-04-27T10:05:15.950Z,999.93
2018-04-27T10:06:26.026Z,999.9
2018-04-27T10:07:36.126Z,999.87
2018-04-27T10:08:46.182Z,999.88
2018-04-27T10:09:56.327Z,999.95
2018-04-27T10:11:06.405Z,999.9
2018-04-27T10:12:16.234Z,999.92
2018-04-27T10:13:26.347Z,999.9
2018-04-27T10:14:36.504Z,999.88
2018-04-27T10:15:46.588Z,999.93
2018-04-27T10:16:56.757Z,999.85
2018-04-27T10:18:06.854Z,999.79
2018-04-27T10:19:16.690Z,999.78
2018-04-27T10:20:26.793Z,999.85
2018-04-27T10:21:37.086Z,999.77
2018-04-27T10:22:47.269Z,999.74
2018-04-27T10:23:57.097Z,999.81
2018-04-27T10:25:07.196Z,999.62
2018-04-27T10:26:17.017Z,999.62
2018-04-27T10:27:27.133Z,999.55
2018-04-27T10:28:36.990Z,999.6
2018-04-27T10:29:47.080Z,999.57
2018-04-27T10:30:57.260Z,999.58
2018-04-27T10:32:06.637Z,999.53
2018-04-27T10:33:16.754Z,999.62
2018-04-27T10:34:27.102Z,999.6
2018-04-27T10:35:37.726Z,999.55
2018-04-27T10:36:47.815Z,999.51
2018-04-27T10:37:57.893Z,999.52
2018-04-27T10:39:07.720Z,999.52
2018-04-27T10:40:17.856Z,999.39
2018-04-27T10:41:27.694Z,999.4
2018-04-27T10:42:37.783Z,999.33
2018-04-27T10:43:47.869Z,999.37
2018-04-27T10:44:57.968Z,999.41
2018-04-27T10:46:08.088Z,999.39
2018-04-27T10:47:17.929Z,999.34
2018-04-27T10:48:27.747Z,999.26
2018-04-27T10:49:37.601Z,999.29
2018-04-27T10:50:47.697Z,999.26
2018-04-27T10:51:57.791Z,999.25
2018-04-27T10:53:07.874Z,999.15
2018-04-27T10:54:17.697Z,999.2
2018-04-27T10:55:27.788Z,999.18
2018-04-27T10:56:37.864Z,999.16
2018-04-27T10:57:47.954Z,999.14
2018-04-27T10:58:57.768Z,999.13
2018-04-27T11:00:07.604Z,999.03
2018-04-27T11:01:17.717Z,999.07
2018-04-27T11:02:27.837Z,999.03
2018-04-27T11:03:37.933Z,999.04
2018-04-27T11:04:48.019Z,998.97
2018-04-27T11:05:58.105Z,999
2018-04-27T11:07:08.187Z,998.97
2018-04-27T11:08:18.279Z,998.97
2018-04-27T11:09:28.412Z,999.04
2018-04-27T11:10:38.511Z,998.97
2018-04-27T11:11:48.599Z,998.9
2018-04-27T11:12:58.684Z,998.94
2018-04-27T11:14:08.777Z,998.91
2018-04-27T11:15:18.869Z,998.92
2018-04-27T11:16:28.967Z,998.9
2018-04-27T11:17:39.042Z,998.92
2018-04-27T11:18:49.154Z,998.9
2018-04-27T11:19:59.002Z,998.89
2018-04-27T11:21:09.224Z,998.84
2018-04-27T11:22:19.053Z,998.88
2018-04-27T11:23:29.136Z,998.8
2018-04-27T11:24:39.218Z,998.72
2018-04-27T11:25:49.324Z,998.71
2018-04-27T11:26:59.463Z,998.67
2018-04-27T11:28:09.572Z,998.67
2018-04-27T11:29:19.665Z,998.67
2018-04-27T11:30:29.761Z,998.67
2018-04-27T11:31:39.593Z,998.63
2018-04-27T11:32:49.421Z,998.63
2018-04-27T11:33:59.542Z,998.59
2018-04-27T11:35:09.677Z,998.55
2018-04-27T11:36:20.091Z,998.52
2018-04-27T11:37:30.189Z,998.55
2018-04-27T11:38:40.293Z,998.56
2018-04-27T11:39:50.247Z,998.47
2018-04-27T11:41:00.343Z,998.39
2018-04-27T11:42:10.456Z,998.44
2018-04-27T11:43:20.548Z,998.46
2018-04-27T11:44:30.628Z,998.4
2018-04-27T11:45:40.713Z,998.41
2018-04-27T11:46:50.804Z,998.28
2018-04-27T11:48:00.884Z,998.29
2018-04-27T11:49:10.976Z,998.33
2018-04-27T11:50:21.062Z,998.28
2018-04-27T12:00:00.644Z,998.17
2018-04-27T12:01:10.201Z,998.08
2018-04-27T12:02:20.310Z,998.05
2018-04-27T12:03:30.405Z,998.1
2018-04-27T12:04:40.661Z,998.15
2018-04-27T12:05:50.797Z,998.15
2018-04-27T12:07:00.880Z,998.05
2018-04-27T12:08:10.713Z,998.04
2018-04-27T12:09:20.811Z,998.09
2018-04-27T12:10:30.635Z,998.03
2018-04-27T12:11:41.025Z,998.03
2018-04-27T12:12:51.114Z,998.05
2018-04-27T12:14:01.221Z,998.11
2018-04-27T12:15:11.071Z,998.02
2018-04-27T12:16:20.903Z,997.87
2018-04-27T12:17:30.742Z,997.95
2018-04-27T12:18:41.145Z,997.84
2018-04-27T12:19:51.231Z,997.87
2018-04-27T12:21:01.305Z,997.8
2018-04-27T12:22:11.399Z,997.77
2018-04-27T12:23:21.249Z,997.74
2018-04-27T12:24:31.346Z,997.67
2018-04-27T12:25:41.418Z,997.65
2018-04-27T12:26:51.519Z,997.61
2018-04-27T12:28:01.632Z,997.59
2018-04-27T12:29:12.047Z,997.52
2018-04-27T12:30:21.891Z,997.46
2018-04-27T12:31:32.048Z,997.43
2018-04-27T12:32:42.714Z,997.52
2018-04-27T12:33:52.529Z,997.31
2018-04-27T12:35:02.632Z,997.39
2018-04-27T12:36:12.730Z,997.37
2018-04-27T12:37:22.546Z,997.31
2018-04-27T12:38:32.363Z,997.35
2018-04-27T12:39:42.470Z,997.35
2018-04-27T12:40:52.595Z,997.35
2018-04-27T12:42:02.689Z,997.41
2018-04-27T12:43:12.509Z,997.36
2018-04-27T12:44:22.595Z,997.39
2018-04-27T12:45:32.694Z,997.27
2018-04-27T12:46:42.838Z,997.3
2018-04-27T12:47:52.938Z,997.29
2018-04-27T12:49:03.391Z,997.23
2018-04-27T12:50:13.619Z,997.28
2018-04-27T12:51:23.703Z,997.19
2018-04-27T12:52:33.584Z,997.13
2018-04-27T12:53:43.666Z,997.1
2018-04-27T12:54:53.500Z,997.03
2018-04-27T12:56:03.339Z,997.04
2018-04-27T12:57:13.167Z,997.04
2018-04-27T12:58:23.017Z,996.99
2018-04-27T12:59:33.134Z,997.06
2018-04-27T13:00:43.251Z,997.05
2018-04-27T13:01:53.353Z,997.03
2018-04-27T13:03:03.192Z,996.96
2018-04-27T13:04:13.330Z,997.05
2018-04-27T13:05:23.143Z,997.03
2018-04-27T13:06:33.234Z,997.04
2018-04-27T13:07:43.330Z,996.93
2018-04-27T13:08:53.517Z,996.91
2018-04-27T13:10:03.619Z,996.9
2018-04-27T13:11:13.704Z,996.95
2018-04-27T13:12:23.782Z,996.82
2018-04-27T13:13:33.875Z,996.84
2018-04-27T13:14:44.022Z,996.85
2018-04-27T13:15:53.839Z,996.9
2018-04-27T13:17:03.943Z,996.9
2018-04-27T13:18:14.047Z,996.88
2018-04-27T13:19:24.180Z,996.86
2018-04-27T13:20:34.256Z,996.85
2018-04-27T13:21:44.413Z,996.75
2018-04-27T13:22:54.523Z,996.82
2018-04-27T13:24:04.627Z,996.73
2018-04-27T13:25:14.630Z,996.78
2018-04-27T13:26:24.649Z,996.68
2018-04-27T13:27:34.904Z,996.77
2018-04-27T13:28:44.754Z,996.79
2018-04-27T13:29:54.850Z,996.66
2018-04-27T13:31:04.958Z,996.66
2018-04-27T13:32:15.082Z,996.68
2018-04-27T13:33:25.331Z,996.63
2018-04-27T13:34:35.494Z,996.54
2018-04-27T13:35:45.620Z,996.54
2018-04-27T13:36:55.800Z,996.58
2018-04-27T13:38:05.925Z,996.52
2018-04-27T13:39:16.027Z,996.59
2018-04-27T13:40:25.620Z,996.56
2018-04-27T13:41:35.560Z,996.48
2018-04-27T13:42:45.661Z,996.54
2018-04-27T13:43:55.800Z,996.44
2018-04-27T13:45:06.113Z,996.41
2018-04-27T13:46:15.944Z,996.4
2018-04-27T13:47:26.039Z,996.24
2018-04-27T13:48:36.122Z,996.42
2018-04-27T13:49:46.274Z,996.4
2018-04-27T13:50:56.372Z,996.39
2018-04-27T13:52:06.443Z,996.39
2018-04-27T13:53:16.524Z,996.33
2018-04-27T13:54:26.633Z,996.26
2018-04-27T13:55:36.845Z,996.28
2018-04-27T13:56:46.421Z,996.32
2018-04-27T13:57:56.523Z,996.28
2018-04-27T13:59:06.641Z,996.35
2018-04-27T14:00:16.761Z,996.29
2018-04-27T14:01:26.616Z,996.21
2018-04-27T14:02:36.741Z,996.24
2018-04-27T14:03:47.331Z,996.19
2018-04-27T14:04:57.460Z,996.2
2018-04-27T14:06:07.291Z,996.25
2018-04-27T14:07:17.449Z,996.16
2018-04-27T14:08:27.540Z,996.12
2018-04-27T14:09:37.905Z,996.15
2018-04-27T14:10:48.334Z,996.16
2018-04-27T14:11:58.168Z,996.14
2018-04-27T14:13:08.055Z,996.03
2018-04-27T14:14:18.139Z,996.07
2018-04-27T14:15:28.217Z,996.08
2018-04-27T14:16:38.307Z,996.03
2018-04-27T14:17:48.399Z,996.08
2018-04-27T14:18:58.288Z,996.01
2018-04-27T14:20:08.420Z,995.97
2018-04-27T14:21:18.539Z,995.94
2018-04-27T14:22:28.513Z,995.97
2018-04-27T14:23:38.346Z,995.83
2018-04-27T14:24:48.441Z,995.84
2018-04-27T14:25:58.564Z,995.86
2018-04-27T14:27:08.425Z,995.88
2018-04-27T14:28:18.534Z,995.85
2018-04-27T14:29:28.380Z,995.82
2018-04-27T14:30:38.227Z,995.76
2018-04-27T14:31:48.329Z,995.73
2018-04-27T14:32:58.431Z,995.76
2018-04-27T14:34:08.530Z,995.77
2018-04-27T14:35:18.639Z,995.69
2018-04-27T14:36:28.836Z,995.68
2018-04-27T14:37:38.915Z,995.65
2018-04-27T14:38:48.996Z,995.66
2018-04-27T14:39:58.825Z,995.61
2018-04-27T14:41:08.388Z,995.59
2018-04-27T14:42:18.259Z,995.66
2018-04-27T14:43:28.126Z,995.61
2018-04-27T14:44:38.228Z,995.55
2018-04-27T14:45:48.064Z,995.59
2018-04-27T14:46:58.156Z,995.54
2018-04-27T14:48:07.805Z,995.56
2018-04-27T14:49:17.960Z,995.62
2018-04-27T14:50:28.072Z,995.55
2018-04-27T14:51:38.164Z,995.58
2018-04-27T14:52:47.998Z,995.63
2018-04-27T14:53:57.834Z,995.57
2018-04-27T14:55:07.966Z,995.55
2018-04-27T14:56:18.083Z,995.52
2018-04-27T14:57:28.196Z,995.51